Flight Track Log - Related Links

Times and Time Zones

All times are in EDT time to prevent confusion due to time zone crossing. See the AWI3970 flight status page for this flight to view local times or setup timezone preferences in your user account.

Time Position Orientation Groundspeed Altitude Reporting Facility
EDT Latitude Longitude Course Direction KTS MPH feet Rate Location/Type
Fri 10:59:37 PM 39.8833 -75.2167 37° Northeast 164 189 600  Level Philadelphia TRACON
Fri 11:00:43 PM 39.8667 -75.1500 108° East 196 226 3,100 2,429 Climbing Philadelphia TRACON
Fri 11:01:43 PM 39.8500 -75.0667 105° East 244 281 5,700 2,750 Climbing Philadelphia TRACON
Fri 11:02:00 PM 39.8167 -74.8809 90° East  Level FlightAware Approximate
Fri 11:02:43 PM 39.8333 -74.9833 105° East 261 300 8,600  Level Philadelphia TRACON
Fri 11:03:00 PM 39.7956 -74.7612 105° East  Level FlightAware Approximate
Fri 11:04:00 PM 39.8199 -74.6635 37° Northeast  Level FlightAware Approximate
Fri 11:04:44 PM 39.8056 -74.7808 100° East 298 343 11,700  Level New York Center
Fri 11:05:45 PM 39.8322 -74.6742 72° East 311 358 13,900 1,967 Climbing New York Center
Fri 11:06:46 PM 39.9097 -74.6003 36° Northeast 294 338 15,700 2,016 Climbing New York Center
Fri 11:07:47 PM 39.9997 -74.5183 35° Northeast 358 412 18,000 1,686 Climbing New York Center
Fri 11:08:47 PM 40.0753 -74.4411 38° Northeast 347 399 19,100 1,169 Climbing New York Center
Fri 11:09:45 PM 40.1528 -74.3611 38° Northeast 347 399 20,300 1,150 Climbing New York Center
Fri 11:10:47 PM 40.2342 -74.2836 36° Northeast 347 399 21,400 1,355 Climbing New York Center
Fri 11:12:20 PM 40.3572 -74.1803 33° Northeast 354 407 23,800 1,020 Climbing Boston Center
Fri 11:13:20 PM 40.4456 -74.1197 28° Northeast 354 407 24,000 100 Climbing Boston Center
Fri 11:14:20 PM 40.5319 -74.0539 30° Northeast 354 407 24,000  Level Boston Center
Fri 11:15:20 PM 40.6203 -73.9958 27° Northeast 354 407 24,000  Level Boston Center
Fri 11:16:20 PM 40.7044 -73.9322 30° Northeast 354 407 24,000  Level Boston Center
Fri 11:17:20 PM 40.7972 -73.8603 30° Northeast 359 413 24,000  Level Boston Center
Fri 11:18:20 PM 40.8797 -73.7606 42° Northeast 382 440 24,000 -400 Level Boston Center
Fri 11:19:20 PM 40.9867 -73.6856 28° Northeast 401 461 23,200 -500 Descending Boston Center
Fri 11:20:20 PM 41.0950 -73.6961 356° North 406 467 23,000 -100 Descending Boston Center
Fri 11:21:20 PM 41.2075 -73.7039 357° North 406 467 23,000  Level Boston Center
Fri 11:22:20 PM 41.3261 -73.7089 358° North 406 467 23,000 -250 Level Boston Center
Fri 11:23:20 PM 41.4408 -73.7167 357° North 406 467 22,500 -700 Descending Boston Center
Fri 11:24:20 PM 41.5303 -73.7211 358° North 406 467 21,600 -1,050 Descending Boston Center
Fri 11:25:20 PM 41.6614 -73.7294 357° North 401 461 20,400 -1,100 Descending Boston Center
Fri 11:26:20 PM 41.7739 -73.7344 358° North 401 461 19,400 -991 Descending Boston Center
Fri 11:27:09 PM 41.8719 -73.7447 356° North 396 456 18,600 -988 Descending Boston Center
Fri 11:27:45 PM 41.9383 -73.7517 356° North 395 455 18,000 -845 Descending Boston Center
Fri 11:28:20 PM 42.0008 -73.7558 357° North 395 455 17,600 -1,082 Descending Boston Center
Fri 11:28:46 PM 42.0467 -73.7569 359° North 387 445 16,900 -1,400 Descending Boston Center
Fri 11:29:20 PM 42.0967 -73.7606 357° North 385 443 16,200 -1,500 Descending Boston Center
Fri 11:29:46 PM 42.1508 -73.7619 359° North 374 430 15,400 -1,700 Descending Boston Center
Fri 11:30:20 PM 42.2092 -73.7658 357° North 373 429 14,500 -1,770 Descending Boston Center
Fri 11:30:47 PM 42.2489 -73.7694 356° North 354 407 13,600 -1,800 Descending Boston Center
Fri 11:31:20 PM 42.2906 -73.7733 356° North 348 400 12,700 -1,900 Descending Boston Center
Fri 11:31:47 PM 42.3364 -73.7742 359° North 303 349 11,700 -2,000 Descending Boston Center
Fri 11:32:20 PM 42.3822 -73.7639 North 309 356 10,700 -1,672 Descending Boston Center
Fri 11:32:48 PM 42.4156 -73.7589 North 282 325 10,000 -1,700 Descending Boston Center
Fri 11:33:20 PM 42.4594 -73.7542 North 280 322 9,000 -1,869 Descending Boston Center
Fri 11:33:49 PM 42.4969 -73.7494 North 265 305 8,100 -1,800 Descending Boston Center
Fri 11:34:20 PM 42.5325 -73.7475 North 269 310 7,200 -1,889 Descending Boston Center
Fri 11:34:43 PM 42.5575 -73.7450 North 263 303 6,400 -2,000 Descending Boston Center
Fri 11:35:20 PM 42.6078 -73.7378 North 269 310 5,200 -1,967 Descending Boston Center
Fri 11:35:44 PM 42.6369 -73.7300 11° North 261 300 4,400 -1,200 Descending Boston Center
Fri 11:36:20 PM 42.6786 -73.7250 North 269 310 4,000 -400 Descending Boston Center
Fri 11:36:44 PM 42.7078 -73.7200 North 258 297 4,000 -600 Level Boston Center
Fri 11:37:20 PM 42.7475 -73.7153 North 250 288 3,400 -1,180 Descending Boston Center
Fri 11:37:45 PM 42.7747 -73.7131 North 247 284 2,800 -1,400 Descending Boston Center
Fri 11:38:20 PM 42.8081 -73.7192 352° North 238 274 2,000 -1,180 Descending Boston Center
Fri 11:38:46 PM 42.8369 -73.7397 332° Northwest 230 265 1,600 -300 Descending Boston Center
Fri 11:39:20 PM 42.8831 -73.7181 19° North 238 274 1,700 -300 Climbing Boston Center
Fri 11:39:46 PM 42.8156 -73.7844 216° Southwest 125 144 1,300 -923 Descending Boston Center

Login

Don't have an account? Register now (free) for customized features, flight alerts, and more!